Time;durP1;ratioP1;P1;durP2;ratioP2;P2;SDS_P1;SDS_P2;PMS_P1;PMS_P2;Temp;Humidity;BMP_temperature;BMP_pressure;BME280_temperature;BME280_humidity;BME280_pressure;Samples;Min_cycle;Max_cycle;Signal;HPM_P1;HPM_P2
2021/09/07 00:01:03;;;;;;;14.50;11.83;;;19.00;99.90;;;;;;5068995;28;20241;-72
2021/09/07 00:03:30;;;;;;;12.27;10.80;;;19.00;99.90;;;;;;5068853;28;20218;-72
2021/09/07 00:05:58;;;;;;;12.03;10.70;;;19.00;99.90;;;;;;5068167;28;20207;-72
2021/09/07 00:08:25;;;;;;;13.47;10.67;;;19.00;99.90;;;;;;5068925;28;20203;-72
2021/09/07 00:10:52;;;;;;;12.30;11.00;;;19.00;99.90;;;;;;5068516;28;20233;-72
2021/09/07 00:13:18;;;;;;;14.90;11.77;;;19.00;99.90;;;;;;5068679;28;20313;-72
2021/09/07 00:15:45;;;;;;;14.47;11.93;;;18.90;99.90;;;;;;5068298;28;20246;-72
2021/09/07 00:18:12;;;;;;;16.70;13.00;;;18.90;99.90;;;;;;5068800;28;20208;-71
2021/09/07 00:20:38;;;;;;;15.20;13.60;;;18.90;99.90;;;;;;5068348;28;20689;-72
2021/09/07 00:23:06;;;;;;;18.40;14.87;;;18.90;99.90;;;;;;5068261;28;20658;-71
2021/09/07 00:25:33;;;;;;;21.50;16.33;;;18.90;99.90;;;;;;5068688;28;20257;-72
2021/09/07 00:28:00;;;;;;;19.03;14.40;;;18.90;99.90;;;;;;5068102;28;20658;-74
2021/09/07 00:30:28;;;;;;;21.03;13.17;;;18.90;99.90;;;;;;5068477;28;20203;-74
2021/09/07 00:32:55;;;;;;;14.70;12.93;;;18.90;99.90;;;;;;5068192;28;20336;-74
2021/09/07 00:35:23;;;;;;;15.43;12.03;;;18.90;99.90;;;;;;5067973;28;20230;-74
2021/09/07 00:37:50;;;;;;;16.27;11.97;;;18.90;99.90;;;;;;5067996;28;21033;-74
2021/09/07 00:40:18;;;;;;;13.03;11.73;;;18.90;99.90;;;;;;5068606;28;20251;-74
2021/09/07 00:42:45;;;;;;;11.93;10.47;;;18.80;99.90;;;;;;5068221;28;20207;-74
2021/09/07 00:45:12;;;;;;;12.63;11.33;;;18.80;99.90;;;;;;5068294;28;20204;-74
2021/09/07 00:47:39;;;;;;;14.83;11.97;;;18.80;99.90;;;;;;5068313;28;21159;-74
2021/09/07 00:50:07;;;;;;;12.07;10.83;;;18.80;99.90;;;;;;5068252;28;20672;-72
2021/09/07 00:52:36;;;;;;;13.80;11.43;;;18.80;99.90;;;;;;5068381;28;20252;-73
2021/09/07 00:55:04;;;;;;;11.70;10.50;;;18.80;99.90;;;;;;5067874;28;20283;-73
2021/09/07 00:57:33;;;;;;;13.17;10.37;;;18.80;99.90;;;;;;5068093;28;20268;-73
2021/09/07 01:00:00;;;;;;;11.67;10.50;;;18.70;99.90;;;;;;5068079;28;20208;-73
2021/09/07 01:02:27;;;;;;;13.00;11.00;;;18.70;99.90;;;;;;5068319;28;20260;-74
2021/09/07 01:04:54;;;;;;;13.87;10.10;;;18.70;99.90;;;;;;5068070;28;20652;-73
2021/09/07 01:07:20;;;;;;;12.73;11.10;;;18.70;99.90;;;;;;5068166;28;20207;-73
2021/09/07 01:09:47;;;;;;;12.80;10.63;;;18.70;99.90;;;;;;5067916;28;20200;-73
2021/09/07 01:12:14;;;;;;;12.03;10.70;;;18.60;99.90;;;;;;5067984;28;20227;-72
2021/09/07 01:14:43;;;;;;;12.03;10.87;;;18.60;99.90;;;;;;5067828;28;20242;-72
2021/09/07 01:17:13;;;;;;;11.97;10.60;;;18.60;99.90;;;;;;5068085;28;20549;-72
2021/09/07 01:19:42;;;;;;;12.43;10.63;;;18.60;99.90;;;;;;5067913;28;20208;-72
2021/09/07 01:22:08;;;;;;;13.17;10.50;;;18.60;99.90;;;;;;5067726;28;20685;-73
2021/09/07 01:24:36;;;;;;;13.40;11.03;;;18.50;99.90;;;;;;5067943;28;20263;-73
2021/09/07 01:27:06;;;;;;;13.03;10.90;;;18.50;99.90;;;;;;5067786;28;20320;-73
2021/09/07 01:29:33;;;;;;;11.90;10.70;;;18.50;99.90;;;;;;5067979;28;20223;-72
2021/09/07 01:32:00;;;;;;;14.33;10.90;;;18.40;99.90;;;;;;5067762;28;20296;-72
2021/09/07 01:34:27;;;;;;;12.47;11.17;;;18.40;99.90;;;;;;5067762;28;20235;-73
2021/09/07 01:36:54;;;;;;;12.90;11.50;;;18.40;99.90;;;;;;5067593;28;20723;-73
2021/09/07 01:39:21;;;;;;;13.43;11.07;;;18.40;99.90;;;;;;5067994;28;20208;-72
2021/09/07 01:41:50;;;;;;;13.30;11.90;;;18.40;99.90;;;;;;5067689;28;20257;-73
2021/09/07 01:44:17;;;;;;;13.23;11.30;;;18.30;99.90;;;;;;5071233;28;20298;-73
2021/09/07 01:46:44;;;;;;;13.57;11.40;;;18.30;99.90;;;;;;5071393;28;20207;-73
2021/09/07 01:49:11;;;;;;;14.97;11.43;;;18.30;99.90;;;;;;5071437;28;20207;-73
2021/09/07 01:51:39;;;;;;;12.37;11.17;;;18.30;99.90;;;;;;5071427;28;20261;-72
2021/09/07 01:54:07;;;;;;;14.63;11.67;;;18.30;99.90;;;;;;5071103;28;20232;-73
2021/09/07 01:56:33;;;;;;;12.80;11.40;;;18.30;99.90;;;;;;5070837;28;20247;-72
2021/09/07 01:59:02;;;;;;;12.27;11.07;;;18.20;99.90;;;;;;5071164;28;20211;-73
2021/09/07 02:01:29;;;;;;;14.07;11.47;;;18.20;99.90;;;;;;5071128;28;20257;-72
2021/09/07 02:03:57;;;;;;;13.80;11.60;;;18.20;99.90;;;;;;5070655;28;20207;-71
2021/09/07 02:06:23;;;;;;;13.87;12.33;;;18.20;99.90;;;;;;5071012;28;20215;-71
2021/09/07 02:08:50;;;;;;;15.07;12.20;;;18.10;99.90;;;;;;5070913;28;20261;-71
2021/09/07 02:11:17;;;;;;;12.77;11.30;;;18.10;99.90;;;;;;5070843;28;20243;-71
2021/09/07 02:13:44;;;;;;;12.87;11.53;;;18.10;99.90;;;;;;5070551;28;20236;-71
2021/09/07 02:16:12;;;;;;;15.33;11.30;;;18.10;99.90;;;;;;5070724;28;20726;-72
2021/09/07 02:18:39;;;;;;;13.77;12.10;;;18.00;99.90;;;;;;5070942;28;20253;-72
2021/09/07 02:21:05;;;;;;;12.80;11.50;;;18.00;99.90;;;;;;5070455;28;20242;-72
2021/09/07 02:23:32;;;;;;;12.53;11.07;;;18.00;99.90;;;;;;5070891;28;20269;-73
2021/09/07 02:25:59;;;;;;;14.53;12.97;;;18.00;99.90;;;;;;5070629;28;20203;-73
2021/09/07 02:28:25;;;;;;;13.70;12.17;;;17.90;99.90;;;;;;5070690;28;20208;-73
2021/09/07 02:30:52;;;;;;;14.83;12.30;;;17.90;99.90;;;;;;5070526;28;20207;-73
2021/09/07 02:33:20;;;;;;;14.93;12.33;;;17.90;99.90;;;;;;5070613;28;20288;-73
2021/09/07 02:35:46;;;;;;;15.40;12.70;;;17.80;99.90;;;;;;5070191;28;20265;-73
2021/09/07 02:38:13;;;;;;;13.53;11.97;;;17.80;99.90;;;;;;5070308;28;20227;-72
2021/09/07 02:40:40;;;;;;;16.23;12.60;;;17.80;99.90;;;;;;5070432;28;20618;-72
2021/09/07 02:43:06;;;;;;;13.07;11.17;;;17.80;99.90;;;;;;5070373;28;20239;-72
2021/09/07 02:45:33;;;;;;;16.07;11.97;;;17.70;99.90;;;;;;5072126;28;20624;-72
2021/09/07 02:48:00;;;;;;;12.70;11.37;;;17.70;99.90;;;;;;5090335;28;20206;-72
2021/09/07 02:50:28;;;;;;;13.37;11.37;;;17.70;99.90;;;;;;5090399;28;20248;-72
2021/09/07 02:52:54;;;;;;;15.83;11.30;;;17.70;99.90;;;;;;5090462;28;20210;-73
2021/09/07 02:55:21;;;;;;;13.73;11.77;;;17.70;99.90;;;;;;5088937;28;20270;-73
2021/09/07 02:57:47;;;;;;;13.07;11.67;;;17.60;99.90;;;;;;5073094;28;20247;-73
2021/09/07 03:00:14;;;;;;;15.53;11.87;;;17.60;99.90;;;;;;5066351;28;20216;-73
2021/09/07 03:02:41;;;;;;;13.27;11.87;;;17.60;99.90;;;;;;5066619;28;20612;-73
2021/09/07 03:05:09;;;;;;;13.27;11.87;;;17.50;99.90;;;;;;5066558;28;20239;-73
2021/09/07 03:07:36;;;;;;;20.83;12.80;;;17.50;99.90;;;;;;5066333;28;20776;-73
2021/09/07 03:10:03;;;;;;;13.10;11.80;;;17.50;99.90;;;;;;5065972;28;20715;-75
2021/09/07 03:12:30;;;;;;;13.77;12.27;;;17.50;99.90;;;;;;5066034;28;20282;-75
2021/09/07 03:14:57;;;;;;;15.43;13.47;;;17.50;99.90;;;;;;5065802;28;20231;-75
2021/09/07 03:17:23;;;;;;;15.30;12.30;;;17.40;99.90;;;;;;5078820;28;20206;-73
2021/09/07 03:19:50;;;;;;;16.23;13.17;;;17.40;99.90;;;;;;5085766;28;20206;-73
2021/09/07 03:22:17;;;;;;;13.77;11.90;;;17.40;99.90;;;;;;5085896;28;20207;-73
2021/09/07 03:24:44;;;;;;;14.50;12.03;;;17.40;99.90;;;;;;5085993;28;20563;-72
2021/09/07 03:27:11;;;;;;;13.93;11.40;;;17.30;99.90;;;;;;5085873;28;20678;-73
2021/09/07 03:29:38;;;;;;;13.90;11.97;;;17.30;99.90;;;;;;5085795;28;20203;-73
2021/09/07 03:32:05;;;;;;;12.93;11.73;;;17.30;99.90;;;;;;5085167;28;20574;-73
2021/09/07 03:34:35;;;;;;;14.90;12.20;;;17.30;99.90;;;;;;5085752;28;20235;-72
2021/09/07 03:37:02;;;;;;;16.77;12.47;;;17.30;99.90;;;;;;5085527;28;21000;-73
2021/09/07 03:39:28;;;;;;;14.50;11.93;;;17.20;99.90;;;;;;5085461;28;20210;-72
2021/09/07 03:41:56;;;;;;;14.67;11.93;;;17.20;99.90;;;;;;5085655;28;20264;-72
2021/09/07 03:44:23;;;;;;;15.43;11.73;;;17.20;99.90;;;;;;5085809;28;20210;-73
2021/09/07 03:46:50;;;;;;;13.87;12.33;;;17.20;99.90;;;;;;5085732;28;20294;-73
2021/09/07 03:49:16;;;;;;;13.43;11.80;;;17.10;99.90;;;;;;5085655;28;20280;-73
2021/09/07 03:51:43;;;;;;;14.13;12.40;;;17.10;99.90;;;;;;5085820;28;20260;-73
2021/09/07 03:54:10;;;;;;;13.50;12.10;;;17.10;99.90;;;;;;5085094;28;20657;-73
2021/09/07 03:56:36;;;;;;;14.93;12.47;;;17.10;99.90;;;;;;5085532;28;20692;-73
2021/09/07 03:59:04;;;;;;;13.37;11.97;;;17.00;99.90;;;;;;5084721;28;20680;-73
2021/09/07 04:01:31;;;;;;;16.07;11.50;;;17.00;99.90;;;;;;5082793;28;20256;-72
2021/09/07 04:03:58;;;;;;;12.83;11.43;;;17.00;99.90;;;;;;5079500;28;20200;-72
2021/09/07 04:06:24;;;;;;;14.10;11.37;;;16.90;99.90;;;;;;5078643;28;20260;-72
2021/09/07 04:08:51;;;;;;;13.47;12.03;;;16.90;99.90;;;;;;5073465;28;20223;-72
2021/09/07 04:11:17;;;;;;;12.63;11.33;;;16.90;99.90;;;;;;5077205;28;20797;-72
2021/09/07 04:13:44;;;;;;;17.30;12.30;;;16.90;99.90;;;;;;5075285;28;20299;-72
2021/09/07 04:16:12;;;;;;;13.30;11.73;;;16.90;99.90;;;;;;5075184;28;20227;-72
2021/09/07 04:18:39;;;;;;;15.47;11.40;;;16.90;99.90;;;;;;5073644;28;20252;-73
2021/09/07 04:21:08;;;;;;;13.77;12.27;;;16.90;99.90;;;;;;5075486;28;20275;-72
2021/09/07 04:23:34;;;;;;;13.23;11.90;;;16.80;99.90;;;;;;5076079;28;20389;-72
2021/09/07 04:26:01;;;;;;;14.00;11.70;;;16.80;99.90;;;;;;5076519;28;20195;-73
2021/09/07 04:28:28;;;;;;;14.60;11.90;;;16.80;99.90;;;;;;5074600;28;20547;-73
2021/09/07 04:30:54;;;;;;;14.23;11.83;;;16.80;99.90;;;;;;5073031;28;20227;-72
2021/09/07 04:33:22;;;;;;;14.87;12.00;;;16.70;99.90;;;;;;5076516;28;20778;-72
2021/09/07 04:35:49;;;;;;;14.37;12.50;;;16.70;99.90;;;;;;5074722;28;20227;-73
2021/09/07 04:38:15;;;;;;;16.90;12.77;;;16.70;99.90;;;;;;5077263;28;20236;-72
2021/09/07 04:40:42;;;;;;;16.67;13.37;;;16.70;99.90;;;;;;5076696;28;20625;-72
2021/09/07 04:43:09;;;;;;;14.43;12.93;;;16.80;99.90;;;;;;5080691;28;20660;-72
2021/09/07 04:45:35;;;;;;;14.03;12.47;;;16.80;99.90;;;;;;5072878;28;20203;-72
2021/09/07 04:48:02;;;;;;;15.40;12.97;;;16.80;99.90;;;;;;5082166;28;20195;-72
2021/09/07 04:50:30;;;;;;;16.20;11.93;;;16.80;99.90;;;;;;5077961;28;20801;-72
2021/09/07 04:52:57;;;;;;;14.70;13.20;;;16.80;99.90;;;;;;5081116;28;20227;-72
2021/09/07 04:55:24;;;;;;;15.70;12.83;;;16.80;99.90;;;;;;5075623;28;20329;-72
2021/09/07 04:57:51;;;;;;;14.07;12.57;;;16.70;99.90;;;;;;5083693;28;20242;-72
2021/09/07 05:00:18;;;;;;;13.53;12.13;;;16.80;99.90;;;;;;5084163;28;20618;-72
2021/09/07 05:02:45;;;;;;;15.67;12.87;;;16.80;99.90;;;;;;5080459;28;20620;-72
2021/09/07 05:05:12;;;;;;;15.17;13.57;;;16.80;99.90;;;;;;5074844;28;20617;-72
2021/09/07 05:07:41;;;;;;;16.87;13.23;;;16.90;99.90;;;;;;5074187;28;20204;-72
2021/09/07 05:10:09;;;;;;;14.97;12.97;;;16.90;99.90;;;;;;5076600;28;20200;-72
2021/09/07 05:12:35;;;;;;;15.37;12.73;;;16.90;99.90;;;;;;5074727;28;20719;-72
2021/09/07 05:15:02;;;;;;;15.93;13.53;;;16.90;99.90;;;;;;5075299;28;20199;-72
2021/09/07 05:17:28;;;;;;;18.43;14.07;;;16.90;99.90;;;;;;5076503;28;20738;-72
2021/09/07 05:19:55;;;;;;;15.03;13.47;;;16.90;99.90;;;;;;5082299;28;20203;-72
2021/09/07 05:22:22;;;;;;;14.33;12.50;;;16.80;99.90;;;;;;5082160;28;20261;-74
2021/09/07 05:24:49;;;;;;;17.03;13.80;;;16.90;99.90;;;;;;5087462;28;20215;-74
2021/09/07 05:27:16;;;;;;;15.67;13.40;;;16.90;99.90;;;;;;5081865;28;20277;-73
2021/09/07 05:29:43;;;;;;;19.47;14.60;;;16.80;99.90;;;;;;5083607;28;20652;-72
2021/09/07 05:32:10;;;;;;;15.07;13.00;;;16.90;99.90;;;;;;5081632;28;20273;-72
2021/09/07 05:34:37;;;;;;;16.90;13.60;;;16.90;99.90;;;;;;5081917;28;20226;-72
2021/09/07 05:37:05;;;;;;;18.00;12.97;;;16.90;99.90;;;;;;5082260;28;20263;-72
2021/09/07 05:39:31;;;;;;;19.20;13.97;;;16.80;99.90;;;;;;5080844;28;20207;-72
2021/09/07 05:41:59;;;;;;;17.23;14.43;;;16.90;99.90;;;;;;5081545;28;20208;-72
2021/09/07 05:44:26;;;;;;;15.57;13.63;;;16.80;99.90;;;;;;5078919;28;20612;-72
2021/09/07 05:46:52;;;;;;;15.37;12.97;;;16.90;99.90;;;;;;5078638;28;20199;-72
2021/09/07 05:49:19;;;;;;;16.93;13.93;;;16.90;99.90;;;;;;5078532;28;20213;-72
2021/09/07 05:51:46;;;;;;;17.93;14.63;;;16.90;99.90;;;;;;5079360;28;20199;-72
2021/09/07 05:54:12;;;;;;;16.27;12.80;;;16.90;99.90;;;;;;5080615;28;20565;-72
2021/09/07 05:56:39;;;;;;;25.23;13.70;;;16.90;99.90;;;;;;5077485;28;20638;-72
2021/09/07 05:59:07;;;;;;;18.57;13.80;;;16.90;99.90;;;;;;5079658;28;20833;-72
2021/09/07 06:01:35;;;;;;;15.83;13.43;;;16.90;99.90;;;;;;5086563;28;20206;-72
2021/09/07 06:04:02;;;;;;;15.57;13.57;;;16.90;99.90;;;;;;5083325;28;20200;-72
2021/09/07 06:06:29;;;;;;;15.20;13.70;;;16.90;99.90;;;;;;5080842;28;20805;-72
2021/09/07 06:08:56;;;;;;;15.27;13.67;;;16.90;99.90;;;;;;5081060;28;20222;-70
2021/09/07 06:11:22;;;;;;;18.43;14.37;;;16.90;99.90;;;;;;5079960;28;20249;-69
2021/09/07 06:13:49;;;;;;;15.03;13.47;;;16.90;99.90;;;;;;5078934;28;20261;-71
2021/09/07 06:16:17;;;;;;;16.13;14.03;;;16.90;99.90;;;;;;5077949;28;20634;-71
2021/09/07 06:18:44;;;;;;;21.63;15.43;;;16.90;99.90;;;;;;5080057;28;20675;-72
2021/09/07 06:21:10;;;;;;;22.23;15.70;;;16.80;99.90;;;;;;5079234;28;20588;-71
2021/09/07 06:23:37;;;;;;;15.60;13.73;;;16.80;99.90;;;;;;5078359;28;20211;-71
2021/09/07 06:26:04;;;;;;;15.83;14.13;;;16.80;99.90;;;;;;5079912;28;20198;-71
2021/09/07 06:28:30;;;;;;;21.80;14.77;;;16.80;99.90;;;;;;5079398;28;20585;-71
2021/09/07 06:30:57;;;;;;;21.63;15.87;;;16.90;99.90;;;;;;5080258;28;20203;-71
2021/09/07 06:33:25;;;;;;;15.90;14.23;;;16.90;99.90;;;;;;5077386;28;20283;-77
2021/09/07 06:35:52;;;;;;;21.07;14.70;;;16.90;99.90;;;;;;5079949;28;20322;-76
2021/09/07 06:38:18;;;;;;;16.70;15.00;;;16.80;99.90;;;;;;5079909;28;20274;-71
2021/09/07 06:40:45;;;;;;;16.87;15.10;;;16.80;99.90;;;;;;5078159;28;20276;-71
2021/09/07 06:43:11;;;;;;;18.97;14.63;;;16.90;99.90;;;;;;5078337;28;20249;-71
2021/09/07 06:45:38;;;;;;;19.40;14.63;;;16.80;99.90;;;;;;5079198;28;20256;-71
2021/09/07 06:48:05;;;;;;;18.20;14.50;;;16.80;99.90;;;;;;5076838;28;20210;-71
2021/09/07 06:50:33;;;;;;;18.03;13.90;;;16.80;99.90;;;;;;5081712;28;20210;-71
2021/09/07 06:53:00;;;;;;;21.10;14.50;;;16.90;99.90;;;;;;5088406;28;20784;-71
2021/09/07 06:55:27;;;;;;;20.50;14.80;;;16.90;99.90;;;;;;5076863;28;20235;-71
2021/09/07 06:57:54;;;;;;;17.30;14.67;;;16.80;99.90;;;;;;5088462;28;20230;-71
2021/09/07 07:00:21;;;;;;;18.53;14.87;;;17.00;99.90;;;;;;5071267;28;20732;-71
2021/09/07 07:02:47;;;;;;;16.33;13.70;;;17.10;99.90;;;;;;5070782;28;20257;-71
2021/09/07 07:05:14;;;;;;;18.97;13.53;;;17.20;99.90;;;;;;5068339;28;20238;-71
2021/09/07 07:07:42;;;;;;;18.03;13.53;;;17.40;99.90;;;;;;5067967;28;20246;-71
2021/09/07 07:10:09;;;;;;;16.23;13.50;;;17.50;99.90;;;;;;5068699;28;20211;-71
2021/09/07 07:12:36;;;;;;;15.40;13.27;;;17.50;99.90;;;;;;5068220;28;20300;-71
2021/09/07 07:15:03;;;;;;;14.60;12.03;;;17.50;99.90;;;;;;5067987;28;20621;-71
2021/09/07 07:17:30;;;;;;;16.17;13.13;;;17.50;99.90;;;;;;5068336;28;20235;-71
2021/09/07 07:19:56;;;;;;;19.77;12.77;;;17.60;99.90;;;;;;5068316;28;20206;-71
2021/09/07 07:22:25;;;;;;;17.90;13.57;;;17.70;99.90;;;;;;5068161;28;20280;-71
2021/09/07 07:24:53;;;;;;;17.20;13.43;;;17.80;99.90;;;;;;5067814;28;20298;-71
2021/09/07 07:27:20;;;;;;;15.97;12.97;;;17.80;99.90;;;;;;5070675;28;20207;-71
2021/09/07 07:29:47;;;;;;;13.63;12.13;;;17.90;99.90;;;;;;5076738;28;20684;-71
2021/09/07 07:32:13;;;;;;;17.33;12.80;;;18.00;99.90;;;;;;5077827;28;20252;-71
2021/09/07 07:34:40;;;;;;;13.10;11.70;;;18.10;99.90;;;;;;5078944;28;20223;-71
2021/09/07 07:37:07;;;;;;;14.10;12.60;;;18.10;99.90;;;;;;5078842;28;20258;-75
2021/09/07 07:39:34;;;;;;;13.33;11.77;;;18.20;99.90;;;;;;5085666;28;20206;-76
2021/09/07 07:42:02;;;;;;;17.57;12.63;;;18.20;99.90;;;;;;5079189;28;20260;-76
2021/09/07 07:44:35;;;;;;;14.43;11.37;;;18.30;99.90;;;;;;5086055;28;20202;-72
2021/09/07 07:47:02;;;;;;;13.30;10.70;;;18.30;99.90;;;;;;5088129;28;20248;-72
2021/09/07 07:49:28;;;;;;;13.13;11.80;;;18.40;99.90;;;;;;5077820;28;20199;-72
2021/09/07 07:51:55;;;;;;;14.60;10.33;;;18.40;99.90;;;;;;5077374;28;20273;-72
2021/09/07 07:54:22;;;;;;;11.07;9.90;;;18.40;99.90;;;;;;5078522;28;20207;-72
2021/09/07 07:56:49;;;;;;;13.67;9.77;;;18.50;99.90;;;;;;5075615;28;20243;-72
2021/09/07 07:59:17;;;;;;;12.43;10.37;;;18.60;99.90;;;;;;5078956;28;20264;-72
2021/09/07 08:01:43;;;;;;;13.10;10.43;;;18.60;99.90;;;;;;5078698;28;20259;-72
2021/09/07 08:04:10;;;;;;;13.17;9.57;;;18.70;99.90;;;;;;5075922;28;20199;-72
2021/09/07 08:06:39;;;;;;;16.07;9.70;;;18.70;99.90;;;;;;5077199;28;20747;-72
2021/09/07 08:09:06;;;;;;;11.93;8.93;;;18.80;99.90;;;;;;5075738;28;20724;-72
2021/09/07 08:11:32;;;;;;;10.17;9.27;;;18.90;99.90;;;;;;5076191;28;20582;-72
2021/09/07 08:13:59;;;;;;;11.20;9.13;;;19.00;99.90;;;;;;5078764;28;20673;-72
2021/09/07 08:16:27;;;;;;;12.47;10.73;;;19.10;99.90;;;;;;5076124;28;20255;-72
2021/09/07 08:18:53;;;;;;;10.83;9.20;;;19.20;99.90;;;;;;5076711;28;20672;-72
2021/09/07 08:21:20;;;;;;;11.53;10.20;;;19.20;99.90;;;;;;5078002;28;20199;-72
2021/09/07 08:23:47;;;;;;;9.83;8.43;;;19.30;99.90;;;;;;5075232;28;20241;-72
2021/09/07 08:26:13;;;;;;;10.67;9.57;;;19.30;99.90;;;;;;5075255;28;20210;-72
2021/09/07 08:28:40;;;;;;;12.70;9.93;;;19.40;99.90;;;;;;5077647;28;20196;-72
2021/09/07 08:31:07;;;;;;;11.67;10.47;;;19.50;99.90;;;;;;5075508;28;20199;-72
2021/09/07 08:33:35;;;;;;;13.80;11.00;;;19.50;99.90;;;;;;5076594;28;20618;-72
2021/09/07 08:36:02;;;;;;;11.83;9.60;;;19.60;99.90;;;;;;5074830;28;20937;-72
2021/09/07 08:38:29;;;;;;;13.37;9.77;;;19.60;99.90;;;;;;5077931;28;20202;-72
2021/09/07 08:40:56;;;;;;;12.93;11.53;;;19.70;99.90;;;;;;5075194;28;20202;-72
2021/09/07 08:43:24;;;;;;;18.90;11.63;;;19.70;99.90;;;;;;5077726;28;20291;-72
2021/09/07 08:45:52;;;;;;;13.30;11.00;;;19.80;99.90;;;;;;5074901;28;20574;-72
2021/09/07 08:48:21;;;;;;;12.10;10.77;;;19.80;99.90;;;;;;5077831;28;20194;-71
2021/09/07 08:50:49;;;;;;;26.83;13.07;;;19.80;99.90;;;;;;5074833;28;20202;-72
2021/09/07 08:53:16;;;;;;;14.13;10.33;;;19.80;99.90;;;;;;5080065;28;20276;-72
2021/09/07 08:55:42;;;;;;;14.70;10.30;;;19.90;99.90;;;;;;5081651;28;20234;-75
2021/09/07 08:58:09;;;;;;;10.57;9.23;;;19.90;99.90;;;;;;5083230;28;20226;-76
2021/09/07 09:00:36;;;;;;;13.30;10.33;;;20.10;99.90;;;;;;5091578;28;20233;-76
2021/09/07 09:03:12;;;;;;;13.53;10.60;;;20.10;99.90;;;;;;5091389;28;20260;-72
2021/09/07 09:05:42;;;;;;;13.67;10.80;;;20.20;99.90;;;;;;5090896;28;20210;-72
2021/09/07 09:08:13;;;;;;;34.77;12.53;;;20.20;99.90;;;;;;5091137;28;20271;-73
2021/09/07 09:10:40;;;;;;;12.60;9.83;;;20.20;99.90;;;;;;5090869;28;20226;-72
2021/09/07 09:13:09;;;;;;;10.47;9.40;;;20.10;99.90;;;;;;5090600;28;20217;-72
2021/09/07 09:15:36;;;;;;;11.63;9.33;;;20.10;99.90;;;;;;5091100;28;20206;-72
2021/09/07 09:18:07;;;;;;;14.67;10.37;;;20.20;99.90;;;;;;5090608;28;20226;-72
2021/09/07 09:20:34;;;;;;;19.37;11.87;;;20.30;99.90;;;;;;5090807;28;20210;-72
2021/09/07 09:23:03;;;;;;;21.13;10.87;;;20.50;99.90;;;;;;5090512;28;20206;-72
2021/09/07 09:25:33;;;;;;;34.73;12.70;;;20.40;99.90;;;;;;5090400;28;20202;-72
2021/09/07 09:28:21;;;;;;;27.93;12.93;;;20.40;99.90;;;;;;5090186;28;20195;-73
2021/09/07 09:30:51;;;;;;;15.73;10.50;;;20.50;99.90;;;;;;5090250;28;20210;-72
2021/09/07 09:33:19;;;;;;;22.80;10.27;;;20.60;99.90;;;;;;5090200;28;20280;-72
2021/09/07 09:35:50;;;;;;;15.00;10.20;;;20.70;99.90;;;;;;5089930;28;20233;-72
2021/09/07 09:38:17;;;;;;;13.37;11.33;;;20.80;99.90;;;;;;5090173;28;20238;-72
2021/09/07 09:40:52;;;;;;;14.07;10.80;;;20.70;99.90;;;;;;5090013;28;21061;-73
2021/09/07 09:43:24;;;;;;;13.17;10.33;;;20.50;99.90;;;;;;5089770;28;20634;-73
2021/09/07 09:45:51;;;;;;;15.10;10.07;;;20.30;99.90;;;;;;5084846;28;20629;-72
2021/09/07 09:48:26;;;;;;;17.13;10.47;;;20.40;99.90;;;;;;5083733;28;20199;-73
2021/09/07 09:50:54;;;;;;;12.47;9.40;;;20.50;99.90;;;;;;5080816;28;20186;-72
2021/09/07 09:53:22;;;;;;;14.23;9.87;;;20.80;99.90;;;;;;5080769;28;20203;-73
2021/09/07 09:55:53;;;;;;;11.63;10.03;;;21.00;99.90;;;;;;5077602;28;20280;-73
2021/09/07 09:58:20;;;;;;;19.57;10.30;;;21.10;99.90;;;;;;5078540;28;20327;-73
2021/09/07 10:00:48;;;;;;;12.63;9.93;;;21.10;99.90;;;;;;5078138;28;20203;-73
2021/09/07 10:03:15;;;;;;;14.93;10.73;;;21.00;99.90;;;;;;5081937;28;20257;-73
2021/09/07 10:05:43;;;;;;;13.03;8.97;;;20.90;99.90;;;;;;5078094;28;20565;-73
2021/09/07 10:08:11;;;;;;;12.60;8.77;;;20.90;99.90;;;;;;5079063;28;20252;-73
2021/09/07 10:10:43;;;;;;;10.85;9.23;;;21.20;99.90;;;;;;5078004;28;20215;-73
2021/09/07 10:13:16;;;;;;;12.70;10.00;;;21.40;99.90;;;;;;5083980;28;20215;-73
2021/09/07 10:15:46;;;;;;;14.60;10.00;;;21.60;99.90;;;;;;5088305;28;20183;-73
2021/09/07 10:18:31;;;;;;;13.60;10.10;;;21.50;99.90;;;;;;5090116;28;20230;-73
2021/09/07 10:21:05;;;;;;;11.05;9.52;;;21.40;99.90;;;;;;5083129;28;20277;-73
2021/09/07 10:23:52;;;;;;;11.18;9.05;;;21.50;99.90;;;;;;5078564;28;20195;-70
2021/09/07 10:26:19;;;;;;;10.53;9.07;;;21.30;99.90;;;;;;5079344;28;20203;-71
2021/09/07 10:28:56;;;;;;;12.25;8.38;;;21.30;99.90;;;;;;5081413;28;20207;-71
2021/09/07 10:31:24;;;;;;;9.75;7.88;;;21.40;99.90;;;;;;5087668;28;20600;-71
2021/09/07 10:33:59;;;;;;;10.45;8.93;;;21.50;99.90;;;;;;5078114;28;20766;-71
2021/09/07 10:36:27;;;;;;;10.85;8.98;;;21.70;99.90;;;;;;5087947;28;20222;-71
2021/09/07 10:38:55;;;;;;;9.65;8.70;;;21.80;99.90;;;;;;5089262;28;20198;-73
2021/09/07 10:41:47;;;;;;;10.40;7.57;;;21.90;99.90;;;;;;5079485;28;20567;-73
2021/09/07 10:44:31;;;;;;;9.07;8.18;;;22.00;99.90;;;;;;5088617;28;20198;-73
2021/09/07 10:47:10;;;;;;;9.20;8.32;;;22.10;99.90;;;;;;5086344;28;20202;-73
2021/09/07 10:49:44;;;;;;;9.68;7.88;;;22.30;99.90;;;;;;5086598;28;20198;-73
2021/09/07 10:52:13;;;;;;;10.63;8.15;;;22.30;99.90;;;;;;5088732;28;20677;-73
2021/09/07 10:54:42;;;;;;;9.75;8.20;;;22.30;99.90;;;;;;5086338;28;20199;-73
2021/09/07 10:57:10;;;;;;;10.77;8.77;;;22.30;99.90;;;;;;5083562;28;20695;-74
2021/09/07 10:59:50;;;;;;;9.63;8.77;;;22.40;99.90;;;;;;5069535;28;20242;-75
2021/09/07 11:02:40;;;;;;;10.65;8.40;;;22.40;99.90;;;;;;5083923;28;20832;-73
2021/09/07 11:05:08;;;;;;;16.50;8.73;;;22.40;99.90;;;;;;5075588;28;20199;-74
2021/09/07 11:07:40;;;;;;;9.05;7.90;;;22.50;99.90;;;;;;5083015;28;20645;-74
2021/09/07 11:10:27;;;;;;;9.35;8.30;;;22.60;99.90;;;;;;5086506;28;20317;-73
2021/09/07 11:12:55;;;;;;;9.77;7.70;;;22.10;99.90;;;;;;5068972;28;20249;-74
2021/09/07 11:15:25;;;;;;;8.70;7.77;;;22.10;99.90;;;;;;5088005;28;20206;-73
2021/09/07 11:17:55;;;;;;;7.40;6.80;;;22.00;99.90;;;;;;5088323;28;20741;-74
2021/09/07 11:20:25;;;;;;;11.27;8.60;;;22.10;99.90;;;;;;5081817;28;20203;-73
2021/09/07 11:22:52;;;;;;;8.02;7.22;;;22.10;99.90;;;;;;5071090;28;20199;-73
2021/09/07 11:25:22;;;;;;;10.13;8.00;;;22.20;99.90;;;;;;5069836;28;20212;-73
2021/09/07 11:27:58;;;;;;;9.30;7.55;;;22.20;99.90;;;;;;5088708;28;20578;-73
2021/09/07 11:30:35;;;;;;;11.97;8.90;;;22.20;99.90;;;;;;5088386;28;20191;-73
2021/09/07 11:33:05;;;;;;;7.93;7.05;;;22.10;99.90;;;;;;5085125;28;20218;-73
2021/09/07 11:35:33;;;;;;;8.55;6.97;;;22.10;99.90;;;;;;5088193;28;20639;-73
2021/09/07 11:38:03;;;;;;;8.43;7.63;;;22.30;99.90;;;;;;5084993;28;20708;-74
2021/09/07 11:40:31;;;;;;;8.23;7.15;;;22.40;99.90;;;;;;5088195;28;20198;-73
2021/09/07 11:42:58;;;;;;;12.30;8.32;;;22.50;99.90;;;;;;5087907;28;20677;-73
2021/09/07 11:45:27;;;;;;;8.90;7.30;;;22.40;99.90;;;;;;5087996;28;20206;-74
2021/09/07 11:47:55;;;;;;;10.32;7.13;;;22.20;99.90;;;;;;5076785;28;20195;-74
2021/09/07 11:50:24;;;;;;;7.55;6.75;;;22.20;99.90;;;;;;5084718;28;20241;-73
2021/09/07 11:52:52;;;;;;;8.20;7.00;;;22.20;99.90;;;;;;5087592;28;20613;-73
2021/09/07 11:55:57;;;;;;;7.95;6.90;;;22.20;99.90;;;;;;5086833;28;20716;-73
2021/09/07 11:58:30;;;;;;;9.73;6.63;;;22.20;99.90;;;;;;5085068;28;20225;-73
2021/09/07 12:01:11;;;;;;;9.32;7.45;;;22.20;99.90;;;;;;5078909;28;20195;-73
2021/09/07 12:03:48;;;;;;;8.10;7.22;;;22.40;99.90;;;;;;5078819;28;20231;-73
2021/09/07 12:06:16;;;;;;;8.10;7.30;;;22.70;99.90;;;;;;5076406;28;20241;-73
2021/09/07 12:08:45;;;;;;;11.23;6.72;;;22.80;99.90;;;;;;5075562;28;20202;-73
2021/09/07 12:11:27;;;;;;;7.72;7.03;;;23.10;99.90;;;;;;5081150;28;20247;-73
2021/09/07 12:14:03;;;;;;;7.40;6.50;;;23.30;99.90;;;;;;5087001;28;20183;-73
2021/09/07 12:16:29;;;;;;;7.32;6.63;;;23.60;99.90;;;;;;5086028;28;20190;-72
2021/09/07 12:18:57;;;;;;;7.03;6.32;;;23.80;99.90;;;;;;5079359;28;20715;-72
2021/09/07 12:21:25;;;;;;;7.68;6.40;;;24.10;99.90;;;;;;5088312;28;20203;-73
2021/09/07 12:23:54;;;;;;;7.85;7.18;;;24.10;99.90;;;;;;5088227;28;20206;-73
2021/09/07 12:26:37;;;;;;;7.20;6.60;;;23.90;99.90;;;;;;5088043;28;20233;-73
2021/09/07 12:29:14;;;;;;;7.53;6.53;;;23.90;99.90;;;;;;5087687;28;20241;-72
2021/09/07 12:31:42;;;;;;;6.50;5.88;;;24.00;99.90;;;;;;5092967;28;20194;-72
2021/09/07 12:34:10;;;;;;;7.82;7.10;;;24.20;99.90;;;;;;5108065;28;20265;-73
2021/09/07 12:36:45;;;;;;;7.82;7.13;;;24.30;99.90;;;;;;5108268;28;20222;-73